Weather at Citadelle de Québec Heliport

Public forecast

Using degrees Celsius for public forecast. Weather courtesy of forecast.io.

Closest aviation weather report (METAR) to Citadelle de Québec Heliport

Closest report is Quebec Jean Lesage International Airport, 7.7 nm (14.3 km) W.

2024/07/19 06:00 (retrieved 26 minutes ago)

CYQB 190600Z VRB02KT 15SM SKC 15/14 A2993 RMK SLP138

Closest aviation forecast (TAF) to Citadelle de Québec Heliport

Closest forecast is Quebec Jean Lesage International Airport, 7.7 nm (14.3 km) W.

2024/07/19 06:42 (retrieved 0 seconds ago)

TAF CYQB 190540Z 1906/2006 26006KT P6SM FEW050 FM191600 24012KT P6SM SCT040 BECMG 1919/1921 24010G20KT FM200100 24009KT P6SM SKC RMK NXT FCST BY 191200Z